Time;durP1;ratioP1;P1;durP2;ratioP2;P2;SDS_P1;SDS_P2;PMS_P1;PMS_P2;Temp;Humidity;BMP_temperature;BMP_pressure;BME280_temperature;BME280_humidity;BME280_pressure;Samples;Min_cycle;Max_cycle;Signal;HPM_P1;HPM_P2
2023/01/16 00:01:16;;;;;;;;;;;5.20;99.90;;;;;;5014445;28;19937;-90
2023/01/16 00:03:42;;;;;;;;;;;4.00;99.90;;;;;;5008721;28;19945;-90
2023/01/16 00:06:07;;;;;;;;;;;5.60;99.90;;;;;;4979318;28;20339;-90
2023/01/16 00:08:33;;;;;;;;;;;5.50;99.90;;;;;;5014269;28;19926;-90
2023/01/16 00:10:59;;;;;;;;;;;3.90;99.90;;;;;;5002388;28;19933;-91
2023/01/16 00:13:24;;;;;;;;;;;3.90;99.90;;;;;;5017523;28;20368;-90
2023/01/16 00:15:50;;;;;;;;;;;5.10;99.90;;;;;;4997739;28;19926;-89
2023/01/16 00:18:16;;;;;;;;;;;3.90;99.90;;;;;;4998145;28;19933;-90
2023/01/16 00:20:42;;;;;;;;;;;3.90;99.90;;;;;;4999287;28;19925;-90
2023/01/16 00:23:08;;;;;;;;;;;3.90;99.90;;;;;;4993670;28;19925;-92
2023/01/16 00:25:38;;;;;;;;;;;4.20;99.90;;;;;;5017672;28;20292;-90
2023/01/16 00:28:03;;;;;;;;;;;3.80;99.90;;;;;;4997493;28;20056;-90
2023/01/16 00:30:29;;;;;;;;;;;5.30;99.90;;;;;;5001162;28;20038;-90
2023/01/16 00:32:54;;;;;;;;;;;3.80;99.90;;;;;;5009586;28;19934;-90
2023/01/16 00:35:20;;;;;;;;;;;3.60;99.90;;;;;;5004643;28;20332;-91
2023/01/16 00:37:45;;;;;;;;;;;4.80;99.90;;;;;;5015879;28;19925;-90
2023/01/16 00:40:11;;;;;;;;;;;3.50;99.90;;;;;;5015426;28;19932;-90
2023/01/16 00:42:37;;;;;;;;;;;3.40;99.90;;;;;;4989094;28;19929;-90
2023/01/16 00:45:02;;;;;;;;;;;6.00;99.90;;;;;;5013402;28;19987;-91
2023/01/16 00:47:28;;;;;;;;;;;3.20;99.90;;;;;;4993370;28;19925;-89
2023/01/16 00:49:56;;;;;;;;;;;5.10;99.90;;;;;;5009554;28;20335;-91
2023/01/16 00:52:23;;;;;;;;;;;4.40;99.90;;;;;;5008802;28;19925;-91
2023/01/16 00:54:48;;;;;;;;;;;3.00;99.90;;;;;;5016677;28;19936;-90
2023/01/16 00:57:14;;;;;;;;;;;5.10;99.90;;;;;;5005305;28;19951;-91
2023/01/16 00:59:39;;;;;;;;;;;3.20;99.90;;;;;;5031689;28;19979;-90
2023/01/16 01:02:05;;;;;;;;;;;5.60;99.90;;;;;;4981487;28;19936;-90
2023/01/16 01:04:30;;;;;;;;;;;3.80;99.90;;;;;;4991436;28;20003;-90
2023/01/16 01:06:56;;;;;;;;;;;1.40;99.90;;;;;;4995392;28;19974;-90
2023/01/16 01:09:22;;;;;;;;;;;2.60;99.90;;;;;;5005028;28;19941;-90
2023/01/16 01:11:47;;;;;;;;;;;1.00;99.90;;;;;;4997888;28;20299;-91
2023/01/16 01:14:13;;;;;;;;;;;4.90;99.90;;;;;;5007438;28;19925;-90
2023/01/16 01:16:40;;;;;;;;;;;4.80;99.90;;;;;;4987745;28;20012;-89
2023/01/16 01:19:05;;;;;;;;;;;3.50;99.90;;;;;;5024259;28;20411;-90
2023/01/16 01:21:31;;;;;;;;;;;5.10;99.90;;;;;;4989320;28;19968;-90
2023/01/16 01:23:56;;;;;;;;;;;5.20;99.90;;;;;;5009036;28;20067;-91
2023/01/16 01:26:22;;;;;;;;;;;5.70;99.90;;;;;;4980454;28;19968;-90
2023/01/16 01:28:48;;;;;;;;;;;4.80;99.90;;;;;;4989319;28;19925;-91
2023/01/16 01:31:13;;;;;;;;;;;3.70;99.90;;;;;;4997240;28;20296;-90
2023/01/16 01:33:39;;;;;;;;;;;5.60;99.90;;;;;;5015660;28;19947;-90
2023/01/16 01:36:06;;;;;;;;;;;4.50;99.90;;;;;;4994798;28;19984;-90
2023/01/16 01:38:32;;;;;;;;;;;2.70;99.90;;;;;;4994976;28;20324;-90
2023/01/16 01:40:57;;;;;;;;;;;4.60;99.90;;;;;;4999231;28;19929;-90
2023/01/16 01:43:43;;;;;;;;;;;5.20;99.90;;;;;;5015675;28;19929;-90
2023/01/16 01:46:13;;;;;;;;;;;2.70;99.90;;;;;;4988412;28;19925;-90
2023/01/16 01:48:40;;;;;;;;;;;5.40;99.90;;;;;;4995146;28;19930;-90
2023/01/16 01:51:32;;;;;;;;;;;3.90;99.90;;;;;;4992061;28;20012;-90
2023/01/16 01:54:02;;;;;;;;;;;2.90;99.90;;;;;;5008320;28;20391;-90
2023/01/16 01:56:32;;;;;;;;;;;5.30;99.90;;;;;;5023532;28;19925;-90
2023/01/16 01:58:59;;;;;;;;;;;5.20;99.90;;;;;;5010931;28;20001;-91
2023/01/16 02:01:26;;;;;;;;;;;2.70;99.90;;;;;;4996111;28;19929;-91
2023/01/16 02:03:56;;;;;;;;;;;1.00;99.90;;;;;;5003669;28;19926;-91
2023/01/16 02:06:25;;;;;;;;;;;5.30;99.90;;;;;;5010732;28;19961;-89
2023/01/16 02:08:52;;;;;;;;;;;5.20;99.90;;;;;;5013182;28;19925;-90
2023/01/16 02:11:25;;;;;;;;;;;5.60;99.90;;;;;;5012443;28;19980;-91
2023/01/16 02:14:04;;;;;;;;;;;5.00;99.90;;;;;;4999591;28;19971;-90
2023/01/16 02:19:24;;;;;;;;;;;3.00;99.90;;;;;;4968739;28;20021;-91
2023/01/16 02:21:53;;;;;;;;;;;4.00;99.90;;;;;;5000036;28;19929;-90
2023/01/16 02:24:21;;;;;;;;;;;3.00;99.90;;;;;;4991817;28;20297;-90
2023/01/16 02:26:59;;;;;;;;;;;3.10;99.90;;;;;;5015222;28;19973;-90
2023/01/16 02:29:25;;;;;;;;;;;3.10;99.90;;;;;;5001142;28;19929;-91
2023/01/16 02:31:55;;;;;;;;;;;5.30;99.90;;;;;;5030484;28;19995;-90
2023/01/16 02:34:39;;;;;;;;;;;5.80;99.90;;;;;;4997576;28;19932;-90
2023/01/16 02:37:10;;;;;;;;;;;3.40;99.90;;;;;;5021864;28;19983;-90
2023/01/16 02:39:58;;;;;;;;;;;3.40;99.90;;;;;;4999747;28;20016;-91
2023/01/16 02:42:23;;;;;;;;;;;3.20;99.90;;;;;;5003936;28;19926;-90
2023/01/16 02:45:09;;;;;;;;;;;3.30;99.90;;;;;;5041966;28;19963;-90
2023/01/16 02:47:44;;;;;;;;;;;4.60;99.90;;;;;;5024131;28;19937;-90
2023/01/16 02:50:19;;;;;;;;;;;3.30;99.90;;;;;;5008022;28;19925;-90
2023/01/16 02:52:46;;;;;;;;;;;4.70;99.90;;;;;;5002375;28;19943;-90
2023/01/16 02:55:16;;;;;;;;;;;3.30;99.90;;;;;;4999438;28;20393;-90
2023/01/16 02:57:45;;;;;;;;;;;5.70;99.90;;;;;;5015142;28;20206;-90
2023/01/16 03:00:12;;;;;;;;;;;5.40;99.90;;;;;;5018473;28;19929;-90
2023/01/16 03:02:38;;;;;;;;;;;3.40;99.90;;;;;;5018216;28;20016;-90
2023/01/16 03:05:03;;;;;;;;;;;3.60;99.90;;;;;;5002953;28;19968;-90
2023/01/16 03:07:38;;;;;;;;;;;3.40;99.90;;;;;;5015675;28;20385;-90
2023/01/16 03:10:23;;;;;;;;;;;3.40;99.90;;;;;;5023460;28;19925;-91
2023/01/16 03:13:11;;;;;;;;;;;3.40;99.90;;;;;;5017904;28;19932;-90
2023/01/16 03:15:40;;;;;;;;;;;3.40;99.90;;;;;;5028515;28;20403;-91
2023/01/16 03:18:08;;;;;;;;;;;3.40;99.90;;;;;;5001569;28;20341;-90
2023/01/16 03:20:34;;;;;;;;;;;3.40;99.90;;;;;;5019536;28;19933;-90
2023/01/16 03:23:09;;;;;;;;;;;3.60;99.90;;;;;;5013391;28;19925;-90
2023/01/16 03:25:38;;;;;;;;;;;3.30;99.90;;;;;;5001701;28;19933;-90
2023/01/16 03:28:13;;;;;;;;;;;5.50;99.90;;;;;;4998740;28;19932;-90
2023/01/16 03:30:42;;;;;;;;;;;3.30;99.90;;;;;;5000626;28;19933;-90
2023/01/16 03:33:19;;;;;;;;;;;3.20;99.90;;;;;;4993457;28;19937;-90
2023/01/16 03:35:55;;;;;;;;;;;3.10;99.90;;;;;;4994449;28;19940;-90
2023/01/16 03:38:22;;;;;;;;;;;3.00;99.90;;;;;;5015370;28;20369;-90
2023/01/16 03:40:48;;;;;;;;;;;5.10;99.90;;;;;;5001070;28;19941;-91
2023/01/16 03:43:23;;;;;;;;;;;5.70;99.90;;;;;;5004683;28;19956;-90
2023/01/16 03:46:01;;;;;;;;;;;2.90;99.90;;;;;;5018415;28;20399;-90
2023/01/16 03:48:34;;;;;;;;;;;2.90;99.90;;;;;;5017971;28;20292;-90
2023/01/16 03:51:02;;;;;;;;;;;4.50;99.90;;;;;;5017329;28;20012;-90
2023/01/16 03:53:30;;;;;;;;;;;2.80;99.90;;;;;;4990351;28;19934;-90
2023/01/16 03:56:25;;;;;;;;;;;2.80;99.90;;;;;;5017611;28;19925;-90
2023/01/16 03:58:52;;;;;;;;;;;2.80;99.90;;;;;;4995226;28;20439;-90
2023/01/16 04:01:17;;;;;;;;;;;3.50;99.90;;;;;;5002553;28;20067;-90
2023/01/16 04:03:46;;;;;;;;;;;2.80;99.90;;;;;;5000655;28;20012;-90
2023/01/16 04:06:24;;;;;;;;;;;4.10;99.90;;;;;;4982791;28;20023;-90
2023/01/16 04:08:51;;;;;;;;;;;3.50;99.90;;;;;;5013633;28;19995;-89
2023/01/16 04:11:19;;;;;;;;;;;0.90;99.90;;;;;;5001246;28;20030;-90
2023/01/16 04:13:46;;;;;;;;;;;5.20;99.90;;;;;;4997606;28;19984;-90
2023/01/16 04:16:17;;;;;;;;;;;4.80;99.90;;;;;;4995954;28;19929;-90
2023/01/16 04:18:43;;;;;;;;;;;3.20;99.90;;;;;;5016974;28;20052;-90
2023/01/16 04:21:09;;;;;;;;;;;4.60;99.90;;;;;;5000631;28;20394;-91
2023/01/16 04:23:35;;;;;;;;;;;4.80;99.90;;;;;;5004080;28;19928;-90
2023/01/16 04:26:03;;;;;;;;;;;4.30;99.90;;;;;;5003768;28;19929;-91
2023/01/16 04:28:29;;;;;;;;;;;4.10;99.90;;;;;;5019188;28;20040;-90
2023/01/16 04:30:54;;;;;;;;;;;5.10;99.90;;;;;;5000472;28;19929;-90
2023/01/16 04:33:20;;;;;;;;;;;3.00;99.90;;;;;;5021263;28;19932;-90
2023/01/16 04:35:46;;;;;;;;;;;4.50;99.90;;;;;;4988258;28;19931;-90
2023/01/16 04:38:12;;;;;;;;;;;5.90;99.90;;;;;;5000030;28;20622;-91
2023/01/16 04:40:38;;;;;;;;;;;5.40;99.90;;;;;;5010471;28;20016;-90
2023/01/16 04:43:03;;;;;;;;;;;6.20;99.90;;;;;;4999865;28;19925;-90
2023/01/16 04:45:29;;;;;;;;;;;1.40;99.90;;;;;;5016879;28;20760;-90
2023/01/16 04:47:55;;;;;;;;;;;5.90;99.90;;;;;;5001129;28;20439;-90
2023/01/16 04:50:20;;;;;;;;;;;2.50;99.90;;;;;;5017454;28;20305;-90
2023/01/16 04:52:46;;;;;;;;;;;3.90;99.90;;;;;;5003104;28;19972;-91
2023/01/16 04:55:12;;;;;;;;;;;4.40;99.90;;;;;;5016631;28;20383;-90
2023/01/16 04:57:40;;;;;;;;;;;5.80;99.90;;;;;;4996583;28;19925;-90
2023/01/16 05:00:07;;;;;;;;;;;5.10;99.90;;;;;;5016274;28;19929;-90
2023/01/16 05:02:32;;;;;;;;;;;3.30;99.90;;;;;;5013044;28;19929;-91
2023/01/16 05:04:58;;;;;;;;;;;5.00;99.90;;;;;;5005611;28;19925;-90
2023/01/16 05:07:26;;;;;;;;;;;5.00;99.90;;;;;;4999320;28;19961;-90
2023/01/16 05:09:52;;;;;;;;;;;3.40;99.90;;;;;;4997842;28;19925;-90
2023/01/16 05:12:17;;;;;;;;;;;3.60;99.90;;;;;;4989641;28;19936;-90
2023/01/16 05:14:43;;;;;;;;;;;3.40;99.90;;;;;;5002162;28;20020;-90
2023/01/16 05:17:09;;;;;;;;;;;3.30;99.90;;;;;;5001912;28;20004;-90
2023/01/16 05:19:34;;;;;;;;;;;6.20;99.90;;;;;;4997529;28;19929;-90
2023/01/16 05:22:00;;;;;;;;;;;6.10;99.90;;;;;;5003901;28;19940;-91
2023/01/16 05:24:25;;;;;;;;;;;5.50;99.90;;;;;;5001218;28;20056;-90
2023/01/16 05:26:51;;;;;;;;;;;4.30;99.90;;;;;;5011578;28;20015;-90
2023/01/16 05:29:17;;;;;;;;;;;3.40;99.90;;;;;;5015665;28;19976;-90
2023/01/16 05:31:42;;;;;;;;;;;5.00;99.90;;;;;;5006504;28;19940;-90
2023/01/16 05:34:08;;;;;;;;;;;0.70;99.90;;;;;;4988292;28;20343;-90
2023/01/16 05:36:34;;;;;;;;;;;6.00;99.90;;;;;;4996261;28;20008;-90
2023/01/16 05:38:59;;;;;;;;;;;5.50;99.90;;;;;;4978084;28;19925;-91
2023/01/16 05:41:25;;;;;;;;;;;6.30;99.90;;;;;;5000248;28;19935;-90
2023/01/16 05:43:50;;;;;;;;;;;3.30;99.90;;;;;;4993687;28;19929;-90
2023/01/16 05:46:17;;;;;;;;;;;2.90;99.90;;;;;;4999542;28;20008;-90
2023/01/16 05:48:43;;;;;;;;;;;3.10;99.90;;;;;;4998836;28;19929;-90
2023/01/16 05:51:08;;;;;;;;;;;4.10;99.90;;;;;;4999798;28;20276;-90
2023/01/16 05:53:34;;;;;;;;;;;4.30;99.90;;;;;;4979043;28;19926;-90
2023/01/16 05:56:05;;;;;;;;;;;5.30;99.90;;;;;;4999316;28;19926;-90
2023/01/16 05:58:31;;;;;;;;;;;4.60;99.90;;;;;;4998950;28;19947;-90
2023/01/16 06:00:57;;;;;;;;;;;1.80;99.90;;;;;;4989862;28;19929;-90
2023/01/16 06:03:22;;;;;;;;;;;0.40;99.90;;;;;;4999274;28;19925;-91
2023/01/16 06:05:48;;;;;;;;;;;2.50;99.90;;;;;;5015830;28;20015;-90
2023/01/16 06:08:13;;;;;;;;;;;2.90;99.90;;;;;;4998116;28;19925;-90
2023/01/16 06:10:39;;;;;;;;;;;5.60;99.90;;;;;;5012968;28;19925;-90
2023/01/16 06:13:05;;;;;;;;;;;2.40;99.90;;;;;;5015479;28;19932;-90
2023/01/16 06:15:30;;;;;;;;;;;3.80;99.90;;;;;;5013618;28;19932;-90
2023/01/16 06:17:56;;;;;;;;;;;4.20;99.90;;;;;;4979878;28;20300;-90
2023/01/16 06:20:22;;;;;;;;;;;5.30;99.90;;;;;;4998368;28;19932;-90
2023/01/16 06:22:47;;;;;;;;;;;4.90;99.90;;;;;;5014318;28;19931;-90
2023/01/16 06:25:13;;;;;;;;;;;2.30;99.90;;;;;;4998068;28;20280;-90
2023/01/16 06:27:39;;;;;;;;;;;2.30;99.90;;;;;;4990745;28;19952;-91
2023/01/16 06:30:05;;;;;;;;;;;3.90;99.90;;;;;;4989465;28;19945;-90
2023/01/16 06:32:30;;;;;;;;;;;2.80;99.90;;;;;;5014684;28;19925;-90
2023/01/16 06:34:56;;;;;;;;;;;5.70;99.90;;;;;;5014921;28;19932;-91
2023/01/16 06:37:22;;;;;;;;;;;2.50;99.90;;;;;;4985282;28;19964;-91
2023/01/16 06:39:47;;;;;;;;;;;4.60;99.90;;;;;;4997265;28;20273;-91
2023/01/16 06:42:13;;;;;;;;;;;5.30;99.90;;;;;;5004280;28;19930;-91
2023/01/16 06:44:38;;;;;;;;;;;5.70;99.90;;;;;;5014425;28;19925;-90
2023/01/16 06:47:06;;;;;;;;;;;5.00;99.90;;;;;;5008086;28;19933;-91
2023/01/16 06:49:32;;;;;;;;;;;5.70;99.90;;;;;;5010636;28;19925;-92
2023/01/16 06:51:59;;;;;;;;;;;2.60;99.90;;;;;;5012583;28;19951;-91
2023/01/16 06:54:25;;;;;;;;;;;4.30;99.90;;;;;;5017577;28;19936;-93
2023/01/16 06:56:51;;;;;;;;;;;3.80;99.90;;;;;;4992741;28;20309;-88
2023/01/16 06:59:16;;;;;;;;;;;4.90;99.90;;;;;;5012186;28;20020;-92
2023/01/16 07:01:42;;;;;;;;;;;5.10;99.90;;;;;;5015175;28;20298;-92
2023/01/16 07:04:09;;;;;;;;;;;2.70;99.90;;;;;;5015298;28;19929;-92
2023/01/16 07:06:35;;;;;;;;;;;3.20;99.90;;;;;;4990766;28;19937;-92
2023/01/16 07:09:01;;;;;;;;;;;3.80;99.90;;;;;;5005927;28;19931;-92
2023/01/16 07:11:29;;;;;;;;;;;3.50;99.90;;;;;;5006669;28;20020;-92
2023/01/16 07:22:34;;;;;;;;;;;3.10;99.90;;;;;;5027231;28;19930;-90
2023/01/16 07:24:56;;;;;;;;;;;3.40;99.90;;;;;;5024157;28;20014;-91
2023/01/16 07:27:22;;;;;;;;;;;3.00;99.90;;;;;;4999360;28;19976;-92
2023/01/16 07:29:48;;;;;;;;;;;5.30;99.90;;;;;;5016796;28;19925;-91
2023/01/16 07:32:13;;;;;;;;;;;2.70;99.90;;;;;;4996100;28;19925;-90
2023/01/16 07:34:39;;;;;;;;;;;3.60;99.90;;;;;;5009747;28;19925;-90
2023/01/16 07:37:10;;;;;;;;;;;2.80;99.90;;;;;;4997509;28;19933;-91
2023/01/16 07:39:44;;;;;;;;;;;3.10;99.90;;;;;;4997563;28;19933;-92
2023/01/16 07:42:12;;;;;;;;;;;4.80;99.90;;;;;;5026255;28;19996;-90
2023/01/16 07:44:43;;;;;;;;;;;3.30;99.90;;;;;;5012110;28;19933;-92
2023/01/16 07:47:12;;;;;;;;;;;3.20;99.90;;;;;;5029829;28;19940;-91
2023/01/16 07:49:38;;;;;;;;;;;3.50;99.90;;;;;;5018595;28;19972;-90
2023/01/16 07:52:03;;;;;;;;;;;2.20;99.90;;;;;;5021024;28;19969;-91
2023/01/16 07:54:29;;;;;;;;;;;2.50;99.90;;;;;;5011061;28;19932;-90
2023/01/16 07:56:55;;;;;;;;;;;3.20;99.90;;;;;;4979191;28;19929;-92
2023/01/16 07:59:20;;;;;;;;;;;3.90;99.90;;;;;;4998175;28;20233;-91
2023/01/16 08:01:46;;;;;;;;;;;3.00;99.90;;;;;;4997476;28;19925;-90
2023/01/16 08:04:12;;;;;;;;;;;3.10;99.90;;;;;;5012508;28;20307;-90
2023/01/16 08:06:44;;;;;;;;;;;3.10;99.90;;;;;;5000323;28;19932;-90
2023/01/16 08:09:12;;;;;;;;;;;3.80;99.90;;;;;;4996112;28;19964;-89
2023/01/16 08:11:46;;;;;;;;;;;5.50;99.90;;;;;;5012825;28;19932;-90
2023/01/16 08:14:12;;;;;;;;;;;2.70;99.90;;;;;;5014958;28;19972;-90
2023/01/16 08:16:40;;;;;;;;;;;4.40;99.90;;;;;;4995921;28;20393;-89
2023/01/16 08:19:06;;;;;;;;;;;5.70;99.90;;;;;;5014073;28;20404;-91
2023/01/16 08:21:32;;;;;;;;;;;2.70;99.90;;;;;;4994669;28;19926;-91
2023/01/16 08:23:57;;;;;;;;;;;0.90;99.90;;;;;;5005844;28;19956;-92
2023/01/16 08:26:25;;;;;;;;;;;5.80;99.90;;;;;;4996026;28;19975;-89
2023/01/16 08:28:54;;;;;;;;;;;4.20;99.90;;;;;;5013454;28;19941;-91
2023/01/16 08:31:22;;;;;;;;;;;3.10;99.90;;;;;;4992551;28;19984;-91
2023/01/16 08:33:53;;;;;;;;;;;3.30;99.90;;;;;;5024220;28;20276;-91
2023/01/16 08:36:20;;;;;;;;;;;4.70;99.90;;;;;;5002091;28;19972;-90
2023/01/16 08:38:47;;;;;;;;;;;3.10;99.90;;;;;;5010798;28;19925;-91
2023/01/16 08:52:10;;;;;;;;;;;2.90;99.90;;;;;;5002205;28;20375;-91
2023/01/16 08:54:39;;;;;;;;;;;3.40;99.90;;;;;;5007988;28;19932;-92
2023/01/16 08:57:05;;;;;;;;;;;3.10;99.90;;;;;;4994133;28;19926;-91
2023/01/16 08:59:33;;;;;;;;;;;5.20;99.90;;;;;;4994928;28;19926;-92
2023/01/16 09:02:02;;;;;;;;;;;5.90;99.90;;;;;;5004998;28;20401;-90
2023/01/16 09:04:28;;;;;;;;;;;2.90;99.90;;;;;;5000178;28;19936;-91
2023/01/16 09:07:01;;;;;;;;;;;5.90;99.90;;;;;;4996334;28;20293;-90
2023/01/16 09:09:27;;;;;;;;;;;3.00;99.90;;;;;;5016525;28;19925;-91
2023/01/16 09:14:37;;;;;;;;;;;5.00;99.90;;;;;;5016418;28;20373;-93
2023/01/16 09:17:05;;;;;;;;;;;4.40;99.90;;;;;;4996464;28;19926;-93
2023/01/16 09:19:31;;;;;;;;;;;4.90;99.90;;;;;;4990255;28;20293;-94
2023/01/16 09:22:05;;;;;;;;;;;3.70;99.90;;;;;;4994326;28;19926;-96
2023/01/16 09:24:31;;;;;;;;;;;3.40;99.90;;;;;;5012813;28;19925;-91
2023/01/16 09:26:57;;;;;;;;;;;6.00;99.90;;;;;;4991593;28;19925;-88
2023/01/16 09:29:22;;;;;;;;;;;4.50;99.90;;;;;;5008180;28;19926;-87
2023/01/16 09:31:48;;;;;;;;;;;3.10;99.90;;;;;;5004117;28;19926;-88
2023/01/16 09:34:14;;;;;;;;;;;5.40;99.90;;;;;;4988840;28;19933;-88
2023/01/16 09:36:39;;;;;;;;;;;3.30;99.90;;;;;;5011230;28;19932;-87
2023/01/16 09:39:05;;;;;;;;;;;3.70;99.90;;;;;;5029870;28;20344;-88
2023/01/16 09:44:20;;;;;;;;;;;4.30;99.90;;;;;;5011395;28;19931;-87
2023/01/16 09:46:47;;;;;;;;;;;3.70;99.90;;;;;;4995080;28;19936;-88
2023/01/16 09:49:21;;;;;;;;;;;5.80;99.90;;;;;;4992999;28;19933;-88
2023/01/16 10:00:19;;;;;;;;;;;4.00;99.90;;;;;;5011349;28;19931;-88
2023/01/16 10:02:45;;;;;;;;;;;3.60;99.90;;;;;;4987675;28;19936;-88
2023/01/16 10:05:11;;;;;;;;;;;3.90;99.90;;;;;;4994779;28;19926;-88
2023/01/16 10:07:42;;;;;;;;;;;6.00;99.90;;;;;;4990124;28;19926;-88
2023/01/16 10:10:14;;;;;;;;;;;6.00;99.90;;;;;;5009377;28;19929;-88
2023/01/16 10:12:45;;;;;;;;;;;3.70;99.90;;;;;;4989943;28;19977;-88
2023/01/16 10:15:11;;;;;;;;;;;3.50;99.90;;;;;;5007419;28;20070;-88
2023/01/16 10:17:46;;;;;;;;;;;3.70;99.90;;;;;;4990556;28;19968;-87
2023/01/16 10:20:30;;;;;;;;;;;3.40;99.90;;;;;;4990977;28;19996;-87
2023/01/16 10:23:05;;;;;;;;;;;3.50;99.90;;;;;;4991789;28;19925;-87
2023/01/16 10:25:44;;;;;;;;;;;4.00;99.90;;;;;;5007006;28;19930;-89
2023/01/16 10:28:09;;;;;;;;;;;3.40;99.90;;;;;;4985750;28;19977;-89
2023/01/16 10:30:38;;;;;;;;;;;3.70;99.90;;;;;;5013965;28;19972;-87
2023/01/16 10:33:12;;;;;;;;;;;3.60;99.90;;;;;;4988280;28;20350;-88
2023/01/16 10:35:43;;;;;;;;;;;3.70;99.90;;;;;;4996117;28;20362;-88
2023/01/16 10:38:45;;;;;;;;;;;3.70;99.90;;;;;;5003037;28;22558;-87
2023/01/16 10:49:55;;;;;;;;;;;5.70;99.90;;;;;;5014023;28;19936;-89
2023/01/16 10:52:21;;;;;;;;;;;4.00;99.90;;;;;;5013806;28;19925;-88
2023/01/16 10:54:47;;;;;;;;;;;6.60;99.90;;;;;;5015677;28;20413;-89
2023/01/16 10:57:17;;;;;;;;;;;5.90;99.90;;;;;;5009693;28;20340;-88
2023/01/16 10:59:44;;;;;;;;;;;3.60;99.90;;;;;;4998709;28;19925;-86
2023/01/16 11:02:19;;;;;;;;;;;4.90;99.90;;;;;;4992101;28;19934;-88
2023/01/16 11:04:45;;;;;;;;;;;3.70;99.90;;;;;;4990170;28;20012;-88
2023/01/16 11:07:15;;;;;;;;;;;3.80;99.90;;;;;;4992557;28;20012;-88
2023/01/16 11:09:42;;;;;;;;;;;3.50;99.90;;;;;;4989926;28;20296;-87
2023/01/16 11:20:38;;;;;;;;;;;3.00;99.90;;;;;;5011732;28;20008;-88
2023/01/16 11:23:05;;;;;;;;;;;3.00;99.90;;;;;;5015453;28;19926;-87
2023/01/16 11:25:31;;;;;;;;;;;5.90;99.90;;;;;;5013502;28;19999;-88
2023/01/16 11:27:58;;;;;;;;;;;3.20;99.90;;;;;;4993444;28;20381;-87
2023/01/16 11:30:28;;;;;;;;;;;3.20;99.90;;;;;;5006706;28;19925;-88
2023/01/16 11:32:55;;;;;;;;;;;3.00;99.90;;;;;;5011298;28;19934;-87
2023/01/16 11:35:25;;;;;;;;;;;5.90;99.90;;;;;;5013325;28;19937;-86
2023/01/16 11:37:52;;;;;;;;;;;5.20;99.90;;;;;;5007043;28;19926;-88
2023/01/16 11:40:22;;;;;;;;;;;3.20;99.90;;;;;;5022112;28;19925;-88
2023/01/16 11:46:07;;;;;;;;;;;2.90;99.90;;;;;;4994999;28;19925;-88
2023/01/16 11:48:37;;;;;;;;;;;5.80;99.90;;;;;;5010114;28;19929;-88
2023/01/16 11:51:04;;;;;;;;;;;6.30;99.90;;;;;;5025614;28;20017;-87
2023/01/16 11:53:33;;;;;;;;;;;3.20;99.90;;;;;;5013314;28;20012;-88
2023/01/16 11:56:06;;;;;;;;;;;4.90;99.90;;;;;;5012330;28;19925;-87
2023/01/16 11:59:06;;;;;;;;;;;5.60;99.90;;;;;;4994655;28;19956;-87
2023/01/16 12:02:15;;;;;;;;;;;3.00;99.90;;;;;;5010457;28;20012;-87
2023/01/16 12:04:23;;;;;;;;;;;3.00;99.90;;;;;;5011957;28;19926;-88
2023/01/16 12:06:57;;;;;;;;;;;4.80;99.90;;;;;;4996039;28;19926;-87
2023/01/16 12:09:38;;;;;;;;;;;3.20;99.90;;;;;;5011240;28;19929;-88
2023/01/16 12:14:17;;;;;;;;;;;3.10;99.90;;;;;;4992172;28;19933;-87
2023/01/16 12:14:59;;;;;;;;;;;3.10;99.90;;;;;;5009958;28;19979;-87
2023/01/16 12:17:34;;;;;;;;;;;5.70;99.90;;;;;;5012429;28;20025;-87
2023/01/16 12:20:03;;;;;;;;;;;3.00;99.90;;;;;;4991345;28;20534;-87
2023/01/16 12:22:29;;;;;;;;;;;3.00;99.90;;;;;;5016741;28;19933;-87
2023/01/16 12:25:14;;;;;;;;;;;5.20;99.90;;;;;;5000556;28;20275;-86
2023/01/16 12:27:58;;;;;;;;;;;3.10;99.90;;;;;;5011465;28;20393;-87
2023/01/16 12:30:29;;;;;;;;;;;3.10;99.90;;;;;;5012357;28;19989;-87
2023/01/16 12:33:12;;;;;;;;;;;3.60;99.90;;;;;;5027296;28;19929;-87
2023/01/16 12:35:56;;;;;;;;;;;3.10;99.90;;;;;;5012990;28;20294;-86
2023/01/16 12:38:33;;;;;;;;;;;3.10;99.90;;;;;;5008409;28;19925;-86
2023/01/16 12:44:01;;;;;;;;;;;3.90;99.90;;;;;;4981785;28;20277;-87
2023/01/16 12:46:29;;;;;;;;;;;3.20;99.90;;;;;;5016336;28;20392;-88
2023/01/16 12:49:18;;;;;;;;;;;3.20;99.90;;;;;;5022135;28;19929;-88
2023/01/16 12:51:47;;;;;;;;;;;5.60;99.90;;;;;;4996955;28;19929;-86
2023/01/16 12:54:31;;;;;;;;;;;3.30;99.90;;;;;;4994216;28;20018;-87
2023/01/16 12:57:00;;;;;;;;;;;3.30;99.90;;;;;;4997307;28;20365;-87
2023/01/16 12:59:30;;;;;;;;;;;3.30;99.90;;;;;;5012988;28;20685;-87
2023/01/16 13:02:14;;;;;;;;;;;5.60;99.90;;;;;;5015836;28;19925;-87
2023/01/16 13:04:46;;;;;;;;;;;3.40;99.90;;;;;;5010264;28;19979;-87
2023/01/16 13:07:13;;;;;;;;;;;3.40;99.90;;;;;;5022538;28;19931;-87
2023/01/16 13:09:44;;;;;;;;;;;6.00;99.90;;;;;;5006391;28;19951;-88
2023/01/16 13:14:59;;;;;;;;;;;3.50;99.90;;;;;;5015847;28;20291;-88
2023/01/16 13:17:31;;;;;;;;;;;4.30;99.90;;;;;;5013483;28;19968;-88
2023/01/16 13:19:59;;;;;;;;;;;3.50;99.90;;;;;;5013018;28;19947;-87
2023/01/16 13:22:29;;;;;;;;;;;3.50;99.90;;;;;;5023719;28;19979;-86
2023/01/16 13:24:55;;;;;;;;;;;3.70;99.90;;;;;;5008394;28;19929;-87
2023/01/16 13:27:47;;;;;;;;;;;4.30;99.90;;;;;;5010274;28;20312;-87
2023/01/16 13:30:17;;;;;;;;;;;3.80;99.90;;;;;;4974161;28;19925;-87
2023/01/16 13:32:46;;;;;;;;;;;3.70;99.90;;;;;;4992415;28;19975;-87
2023/01/16 13:35:26;;;;;;;;;;;6.40;99.90;;;;;;5010371;28;20300;-87
2023/01/16 13:38:05;;;;;;;;;;;1.80;99.90;;;;;;5000522;28;20016;-87
2023/01/16 13:40:33;;;;;;;;;;;3.60;99.90;;;;;;4998181;28;19933;-87
2023/01/16 13:45:47;;;;;;;;;;;4.80;99.90;;;;;;5012833;28;20281;-88
2023/01/16 13:45:50;;;;;;;;;;;3.60;99.90;;;;;;5006984;28;19987;-86
2023/01/16 13:48:36;;;;;;;;;;;5.10;99.90;;;;;;5012387;28;19929;-86
2023/01/16 13:51:15;;;;;;;;;;;3.70;99.90;;;;;;5005675;28;19947;-88
2023/01/16 13:53:44;;;;;;;;;;;1.50;99.90;;;;;;4996266;28;19944;-87
2023/01/16 13:56:12;;;;;;;;;;;3.70;99.90;;;;;;5025294;28;19964;-87
2023/01/16 13:58:45;;;;;;;;;;;3.70;99.90;;;;;;4997688;28;19936;-88
2023/01/16 14:01:29;;;;;;;;;;;3.70;99.90;;;;;;4990643;28;19956;-87
2023/01/16 14:04:10;;;;;;;;;;;3.80;99.90;;;;;;5008152;28;19929;-88
2023/01/16 14:06:43;;;;;;;;;;;4.40;99.90;;;;;;5010971;28;19925;-88
2023/01/16 14:09:18;;;;;;;;;;;4.00;99.90;;;;;;4997220;28;20354;-87
2023/01/16 14:12:02;;;;;;;;;;;2.80;99.90;;;;;;4987936;28;19925;-87
2023/01/16 14:17:15;;;;;;;;;;;3.80;99.90;;;;;;5001605;28;19929;-87
2023/01/16 14:19:54;;;;;;;;;;;4.20;99.90;;;;;;5013456;28;19929;-86
2023/01/16 14:24:54;;;;;;;;;;;3.80;99.90;;;;;;5004497;28;20377;-86
2023/01/16 14:27:28;;;;;;;;;;;5.20;99.90;;;;;;5000691;28;19925;-86
2023/01/16 14:29:56;;;;;;;;;;;3.80;99.90;;;;;;4986751;28;19925;-86
2023/01/16 14:32:26;;;;;;;;;;;3.80;99.90;;;;;;4998224;28;19964;-86
2023/01/16 14:34:57;;;;;;;;;;;3.90;99.90;;;;;;5002294;28;20362;-85
2023/01/16 14:37:27;;;;;;;;;;;3.80;99.90;;;;;;5012805;28;19925;-86
2023/01/16 14:39:55;;;;;;;;;;;2.60;99.90;;;;;;5002400;28;20415;-87
2023/01/16 14:56:41;;;;;;;;;;;3.90;99.90;;;;;;5007625;28;20024;-86
2023/01/16 14:59:09;;;;;;;;;;;5.60;99.90;;;;;;4980785;28;20032;-87
2023/01/16 15:04:26;;;;;;;;;;;4.10;99.90;;;;;;5008058;28;19931;-86
2023/01/16 15:07:00;;;;;;;;;;;3.90;99.90;;;;;;4995012;28;19928;-86
2023/01/16 15:09:29;;;;;;;;;;;4.20;99.90;;;;;;5006559;28;19929;-85
2023/01/16 15:12:01;;;;;;;;;;;3.90;99.90;;;;;;5008877;28;19929;-86
2023/01/16 15:14:28;;;;;;;;;;;5.70;99.90;;;;;;5008919;28;19965;-86
2023/01/16 15:22:44;;;;;;;;;;;3.90;99.90;;;;;;5012434;28;20277;-85
2023/01/16 15:25:16;;;;;;;;;;;3.80;99.90;;;;;;5000792;28;19944;-86
2023/01/16 15:27:42;;;;;;;;;;;4.90;99.90;;;;;;5014842;28;20079;-86
2023/01/16 15:30:17;;;;;;;;;;;3.80;99.90;;;;;;5014136;28;20016;-85
2023/01/16 15:33:44;;;;;;;;;;;3.80;99.90;;;;;;5017492;28;20008;-85
2023/01/16 15:35:54;;;;;;;;;;;3.80;99.90;;;;;;5008249;28;20444;-86
2023/01/16 15:38:19;;;;;;;;;;;4.50;99.90;;;;;;5026862;28;19932;-85
2023/01/16 15:40:49;;;;;;;;;;;3.80;99.90;;;;;;4990237;28;19929;-85
2023/01/16 15:49:07;;;;;;;;;;;3.80;99.90;;;;;;5013862;28;19969;-86
2023/01/16 15:51:32;;;;;;;;;;;3.80;99.90;;;;;;5030276;28;19932;-86
2023/01/16 15:53:59;;;;;;;;;;;4.00;99.90;;;;;;4996000;28;20004;-86
2023/01/16 15:56:33;;;;;;;;;;;4.80;99.90;;;;;;5000743;28;19964;-85
2023/01/16 15:58:59;;;;;;;;;;;4.30;99.90;;;;;;5008274;28;19925;-86
2023/01/16 16:01:29;;;;;;;;;;;4.10;99.90;;;;;;4992222;28;19987;-85
2023/01/16 16:03:55;;;;;;;;;;;3.90;99.90;;;;;;5008549;28;19933;-85
2023/01/16 16:06:21;;;;;;;;;;;3.80;99.90;;;;;;5016264;28;20438;-85
2023/01/16 16:08:48;;;;;;;;;;;4.90;99.90;;;;;;4998363;28;20337;-86
2023/01/16 16:20:23;;;;;;;;;;;3.80;99.90;;;;;;5025232;28;19929;-84
2023/01/16 16:22:49;;;;;;;;;;;3.80;99.90;;;;;;5014428;28;19972;-85
2023/01/16 16:25:21;;;;;;;;;;;5.80;99.90;;;;;;5003179;28;20022;-85
2023/01/16 16:27:46;;;;;;;;;;;3.80;99.90;;;;;;5017537;28;19932;-85
2023/01/16 16:30:18;;;;;;;;;;;3.90;99.90;;;;;;5012791;28;19936;-85